Time;durP1;ratioP1;P1;durP2;ratioP2;P2;SDS_P1;SDS_P2;PMS_P1;PMS_P2;Temp;Humidity;BMP_temperature;BMP_pressure;BME280_temperature;BME280_humidity;BME280_pressure;Samples;Min_cycle;Max_cycle;Signal;HPM_P1;HPM_P2
2023/07/07 00:01:47;;;;;;;6.30;2.80;;;;;;;17.71;57.36;99615.25;4884031;29;20577;-76
2023/07/07 00:04:13;;;;;;;7.93;3.70;;;;;;;17.66;57.66;99612.16;4884875;29;20254;-77
2023/07/07 00:06:39;;;;;;;4.20;3.80;;;;;;;17.68;58.47;99616.34;4885962;29;20466;-77
2023/07/07 00:09:04;;;;;;;4.20;2.80;;;;;;;17.67;58.20;99611.22;4890351;29;20362;-77
2023/07/07 00:11:29;;;;;;;3.67;3.27;;;;;;;17.62;58.38;99603.66;4885481;29;20324;-77
2023/07/07 00:13:55;;;;;;;6.70;2.90;;;;;;;17.63;58.45;99607.16;4884790;29;20259;-76
2023/07/07 00:16:27;;;;;;;5.40;2.90;;;;;;;17.66;58.18;99602.41;4884320;29;20620;-78
2023/07/07 00:18:56;;;;;;;4.23;2.53;;;;;;;17.71;58.00;99604.63;4884877;29;20234;-78
2023/07/07 00:21:25;;;;;;;3.43;2.93;;;;;;;17.73;57.81;99607.97;4886134;29;20499;-79
2023/07/07 00:23:57;;;;;;;3.17;2.60;;;;;;;17.69;58.11;99606.59;4886590;29;20574;-77
2023/07/07 00:26:24;;;;;;;3.07;2.87;;;;;;;17.60;58.39;99620.72;4883169;29;20595;-77
2023/07/07 00:28:50;;;;;;;5.27;3.20;;;;;;;17.53;58.44;99616.97;4887777;29;20499;-77
2023/07/07 00:31:17;;;;;;;7.43;3.60;;;;;;;17.51;58.41;99624.25;4885505;29;20481;-77
2023/07/07 00:33:44;;;;;;;5.47;2.87;;;;;;;17.50;58.43;99615.44;4886310;29;20588;-77
2023/07/07 00:36:11;;;;;;;4.10;2.57;;;;;;;17.45;58.54;99625.66;4888177;29;20837;-76
2023/07/07 00:38:36;;;;;;;5.17;3.10;;;;;;;17.39;58.36;99621.75;4885958;29;20480;-78
2023/07/07 00:41:04;;;;;;;5.00;3.07;;;;;;;17.34;58.49;99618.66;4884085;29;20616;-77
2023/07/07 00:43:30;;;;;;;5.30;3.57;;;;;;;17.32;58.55;99625.91;4886047;29;20229;-77
2023/07/07 00:45:58;;;;;;;4.70;3.30;;;;;;;17.30;58.76;99627.03;4889021;29;20483;-77
2023/07/07 00:48:31;;;;;;;4.87;2.97;;;;;;;17.31;58.41;99629.56;4886006;29;20482;-77
2023/07/07 00:51:03;;;;;;;4.20;3.40;;;;;;;17.33;58.36;99627.59;4884610;29;20478;-78
2023/07/07 00:53:30;;;;;;;4.07;3.63;;;;;;;17.32;58.46;99633.06;4882220;29;20773;-76
2023/07/07 00:56:03;;;;;;;5.43;3.20;;;;;;;17.30;58.57;99633.19;4881089;29;20494;-77
2023/07/07 00:58:31;;;;;;;5.30;3.00;;;;;;;17.32;58.33;99639.19;4883807;29;20663;-77
2023/07/07 01:01:02;;;;;;;5.30;3.17;;;;;;;17.29;58.55;99636.00;4886948;29;20491;-77
2023/07/07 01:03:37;;;;;;;3.60;3.30;;;;;;;17.25;58.59;99641.59;4887623;29;20490;-77
2023/07/07 01:06:06;;;;;;;4.80;3.45;;;;;;;17.20;58.93;99640.31;4884891;29;20886;-78
2023/07/07 01:08:33;;;;;;;4.67;3.17;;;;;;;17.16;59.06;99639.75;4885422;29;20493;-77
2023/07/07 01:10:58;;;;;;;3.60;2.60;;;;;;;17.20;59.03;99643.81;4881615;29;20998;-77
2023/07/07 01:13:26;;;;;;;6.00;3.70;;;;;;;17.21;58.93;99648.13;4880373;29;20538;-78
2023/07/07 01:16:19;;;;;;;4.10;3.50;;;;;;;17.24;58.81;99636.41;4878951;29;20239;-78
2023/07/07 01:18:50;;;;;;;3.80;2.60;;;;;;;17.24;58.66;99639.06;4879456;29;20490;-77
2023/07/07 01:21:29;;;;;;;5.07;3.27;;;;;;;17.25;58.71;99641.59;4884498;29;20603;-78
2023/07/07 01:24:18;;;;;;;3.60;2.80;;;;;;;17.19;59.07;99652.75;4879535;29;20471;-77
2023/07/07 01:26:56;;;;;;;5.60;3.70;;;;;;;17.07;59.13;99645.06;4881102;29;20480;-78
2023/07/07 01:33:25;;;;;;;5.00;2.60;;;;;;;16.81;59.93;99651.72;4875595;29;20519;-78
2023/07/07 01:35:51;;;;;;;2.90;2.60;;;;;;;16.81;60.08;99649.06;4875555;29;20809;-76
2023/07/07 01:38:37;;;;;;;4.10;2.77;;;;;;;16.88;59.94;99649.38;4884995;29;20254;-76
2023/07/07 01:41:13;;;;;;;3.93;3.10;;;;;;;16.97;59.69;99645.03;4885370;29;20234;-76
2023/07/07 01:44:07;;;;;;;3.57;3.27;;;;;;;17.06;59.32;99649.50;4883699;29;20468;-78
2023/07/07 01:46:45;;;;;;;5.23;3.30;;;;;;;17.12;59.08;99651.63;4866708;29;20492;-76
2023/07/07 01:49:17;;;;;;;3.03;2.73;;;;;;;17.17;58.98;99645.88;4880051;29;20493;-77
2023/07/07 01:51:51;;;;;;;2.90;2.70;;;;;;;17.22;58.77;99644.50;4877199;29;20591;-77
2023/07/07 01:54:19;;;;;;;4.40;3.50;;;;;;;17.25;58.62;99644.25;4886754;29;20486;-78
2023/07/07 01:56:47;;;;;;;5.40;3.33;;;;;;;17.28;58.46;99645.75;4878986;29;21042;-77
2023/07/07 01:59:14;;;;;;;5.37;2.80;;;;;;;17.27;58.40;99646.75;4865800;29;20996;-76
2023/07/07 02:01:40;;;;;;;4.20;2.70;;;;;;;17.22;58.60;99651.63;4878199;29;20977;-77
2023/07/07 02:04:06;;;;;;;4.40;3.17;;;;;;;17.20;58.67;99648.25;4881570;29;20467;-78
2023/07/07 02:06:31;;;;;;;4.60;3.13;;;;;;;17.15;59.04;99645.22;4879735;29;20581;-77
2023/07/07 02:08:57;;;;;;;4.40;3.80;;;;;;;16.99;59.21;99643.94;4879937;29;20225;-77
2023/07/07 02:11:22;;;;;;;3.30;2.73;;;;;;;16.86;59.66;99648.66;4868282;29;20463;-78
2023/07/07 02:13:48;;;;;;;5.23;3.37;;;;;;;16.76;59.93;99650.41;4877503;29;20211;-76
2023/07/07 02:16:13;;;;;;;3.20;2.77;;;;;;;16.67;60.18;99648.59;4883907;29;20219;-76
2023/07/07 02:18:41;;;;;;;5.30;3.17;;;;;;;16.56;60.46;99658.31;4879831;29;20205;-78
2023/07/07 02:21:07;;;;;;;5.50;2.70;;;;;;;16.45;60.88;99654.94;4882173;29;20246;-76
2023/07/07 02:23:32;;;;;;;7.73;3.50;;;;;;;16.34;61.04;99664.66;4889076;29;20825;-76
2023/07/07 02:25:58;;;;;;;5.80;3.40;;;;;;;16.28;61.36;99672.28;4868040;29;20252;-78
2023/07/07 02:28:24;;;;;;;5.37;2.73;;;;;;;16.27;61.21;99665.31;4887930;29;20637;-77
2023/07/07 02:30:50;;;;;;;4.17;3.23;;;;;;;16.29;61.53;99674.81;4883823;29;20474;-76
2023/07/07 02:33:17;;;;;;;4.87;2.70;;;;;;;16.30;61.03;99668.53;4882585;29;20474;-76
2023/07/07 02:35:48;;;;;;;4.15;3.55;;;;;;;16.32;61.10;99663.94;4883598;29;20469;-76
2023/07/07 02:38:14;;;;;;;7.28;4.25;;;;;;;16.31;61.38;99666.72;4885572;29;20277;-77
2023/07/07 02:40:40;;;;;;;5.43;3.30;;;;;;;16.28;61.34;99661.69;4885588;29;20232;-77
2023/07/07 02:43:05;;;;;;;6.00;2.93;;;;;;;16.25;61.42;99669.91;4864219;29;21123;-76
2023/07/07 02:45:30;;;;;;;3.50;2.60;;;;;;;16.23;61.29;99664.75;4885812;29;20408;-77
2023/07/07 02:47:56;;;;;;;3.80;2.77;;;;;;;16.25;61.25;99677.88;4883763;29;20234;-76
2023/07/07 02:50:21;;;;;;;6.27;3.47;;;;;;;16.31;60.99;99674.66;4881118;29;20227;-78
2023/07/07 02:52:46;;;;;;;3.67;2.83;;;;;;;16.35;60.90;99673.44;4879296;29;20303;-78
2023/07/07 02:55:12;;;;;;;5.10;3.07;;;;;;;16.38;60.71;99670.53;4865504;29;20317;-76
2023/07/07 02:57:37;;;;;;;5.57;2.80;;;;;;;16.43;60.57;99667.50;4874509;29;20642;-77
2023/07/07 03:00:08;;;;;;;6.60;3.07;;;;;;;16.46;60.54;99668.06;4883320;29;21319;-76
2023/07/07 03:02:33;;;;;;;4.53;3.53;;;;;;;16.48;60.62;99658.16;4876544;29;21489;-76
2023/07/07 03:04:59;;;;;;;4.70;3.20;;;;;;;16.50;60.44;99660.66;4884621;29;20224;-76
2023/07/07 03:07:25;;;;;;;3.47;2.85;;;;;;;16.53;60.44;99661.25;4866599;29;20709;-78
2023/07/07 03:09:51;;;;;;;5.97;3.28;;;;;;;16.54;60.30;99657.59;4863544;29;20591;-77
2023/07/07 03:12:17;;;;;;;4.80;3.10;;;;;;;16.53;60.37;99658.59;4885728;29;20223;-76
2023/07/07 03:14:42;;;;;;;5.20;3.30;;;;;;;16.50;60.38;99663.31;4876557;29;20889;-78
2023/07/07 03:17:09;;;;;;;8.70;3.20;;;;;;;16.43;60.37;99657.72;4866440;29;20234;-77
2023/07/07 03:19:41;;;;;;;4.53;3.40;;;;;;;16.35;60.69;99660.19;4880329;29;20668;-76
2023/07/07 03:22:12;;;;;;;5.68;3.03;;;;;;;16.30;61.02;99659.75;4882553;29;20473;-77
2023/07/07 03:24:51;;;;;;;3.10;2.73;;;;;;;16.22;60.92;99659.56;4887172;29;20222;-79
2023/07/07 03:27:27;;;;;;;5.18;3.03;;;;;;;16.07;61.27;99662.59;4879698;29;21033;-76
2023/07/07 03:29:53;;;;;;;7.47;4.38;;;;;;;15.97;61.54;99664.34;4883439;29;20488;-76
2023/07/07 03:32:21;;;;;;;3.75;2.95;;;;;;;15.93;61.58;99658.47;4879388;29;20587;-76
2023/07/07 03:34:49;;;;;;;5.15;3.30;;;;;;;15.95;61.60;99665.44;4878606;29;20213;-76
2023/07/07 03:37:17;;;;;;;4.60;3.20;;;;;;;15.95;61.66;99668.91;4876606;29;20233;-76
2023/07/07 03:39:42;;;;;;;5.10;3.73;;;;;;;15.98;61.57;99668.66;4883452;29;20218;-76
2023/07/07 03:42:08;;;;;;;6.50;4.17;;;;;;;16.00;61.50;99677.31;4886826;29;20509;-76
2023/07/07 03:44:35;;;;;;;4.43;3.47;;;;;;;16.02;61.51;99678.03;4881218;29;20336;-76
2023/07/07 03:47:01;;;;;;;5.10;2.97;;;;;;;16.03;61.31;99695.59;4877750;29;20800;-76
2023/07/07 03:49:27;;;;;;;4.13;3.00;;;;;;;16.04;61.29;99688.47;4877506;29;20203;-76
2023/07/07 03:51:52;;;;;;;7.03;4.80;;;;;;;16.07;61.34;99681.13;4879612;29;20973;-76
2023/07/07 03:54:18;;;;;;;5.00;3.50;;;;;;;16.12;61.55;99693.97;4885552;29;20236;-77
2023/07/07 03:56:44;;;;;;;4.93;3.80;;;;;;;16.14;61.19;99695.50;4866506;29;20304;-76
2023/07/07 03:59:09;;;;;;;5.10;4.30;;;;;;;16.16;61.15;99684.81;4869586;29;20200;-77
2023/07/07 04:01:35;;;;;;;5.77;4.10;;;;;;;16.19;61.12;99684.53;4877839;29;20245;-79
2023/07/07 04:04:00;;;;;;;7.90;3.90;;;;;;;16.24;60.98;99694.75;4881747;29;20598;-77
2023/07/07 04:06:26;;;;;;;5.07;3.80;;;;;;;16.29;61.00;99689.88;4888166;29;20226;-77
2023/07/07 04:08:51;;;;;;;4.80;4.30;;;;;;;16.32;60.85;99693.09;4885983;29;20495;-79
2023/07/07 04:11:20;;;;;;;3.80;3.40;;;;;;;16.35;60.66;99690.19;4887479;29;20325;-77
2023/07/07 04:13:47;;;;;;;6.50;3.50;;;;;;;16.40;60.72;99691.63;4887889;29;20206;-77
2023/07/07 04:16:21;;;;;;;5.03;3.72;;;;;;;16.35;60.74;99694.66;4889508;29;20477;-77
2023/07/07 04:18:47;;;;;;;5.95;3.70;;;;;;;16.28;60.80;99688.19;4883507;29;20811;-78
2023/07/07 04:21:18;;;;;;;6.60;3.33;;;;;;;16.22;61.19;99694.03;4879712;29;20516;-79
2023/07/07 04:23:46;;;;;;;6.15;2.90;;;;;;;16.19;61.19;99689.84;4884031;29;20748;-79
2023/07/07 04:26:12;;;;;;;5.75;3.85;;;;;;;16.20;61.19;99702.09;4887057;29;20775;-77
2023/07/07 04:28:39;;;;;;;6.13;4.07;;;;;;;16.22;61.35;99699.34;4890787;29;20223;-78
2023/07/07 04:31:08;;;;;;;6.93;3.78;;;;;;;16.23;61.36;99695.69;4893047;29;20829;-78
2023/07/07 04:33:35;;;;;;;7.13;3.58;;;;;;;16.22;61.35;99696.69;4895472;29;20509;-77
2023/07/07 04:36:05;;;;;;;5.20;3.47;;;;;;;16.20;61.53;99701.25;4898029;29;20302;-77
2023/07/07 04:38:31;;;;;;;6.57;3.70;;;;;;;16.16;61.58;99708.66;4897412;29;20506;-77
2023/07/07 04:41:07;;;;;;;7.95;3.80;;;;;;;16.13;61.72;99707.09;4894559;29;20688;-77
2023/07/07 04:43:34;;;;;;;3.75;3.45;;;;;;;16.13;61.76;99707.09;4896832;29;20671;-77
2023/07/07 04:46:00;;;;;;;6.20;4.13;;;;;;;16.18;61.68;99714.66;4892880;29;20265;-77
2023/07/07 04:48:26;;;;;;;4.90;3.20;;;;;;;16.25;61.61;99713.16;4895856;29;20682;-78
2023/07/07 04:50:59;;;;;;;4.00;3.00;;;;;;;16.36;61.47;99718.41;4894848;29;20206;-77
2023/07/07 04:53:29;;;;;;;5.22;3.05;;;;;;;16.59;60.97;99720.88;4893869;29;20226;-77
2023/07/07 04:55:56;;;;;;;4.72;3.78;;;;;;;17.04;60.01;99723.16;4895520;29;20305;-78
2023/07/07 04:58:23;;;;;;;5.65;3.35;;;;;;;17.62;58.61;99717.88;4890465;29;20220;-77
2023/07/07 05:00:49;;;;;;;3.67;3.33;;;;;;;18.22;56.64;99720.34;4891054;29;20869;-79
2023/07/07 05:03:15;;;;;;;4.47;3.43;;;;;;;18.84;55.14;99712.72;4894424;29;20462;-77
2023/07/07 05:05:40;;;;;;;4.60;3.50;;;;;;;19.43;53.56;99706.03;4895597;29;20543;-77
2023/07/07 05:08:07;;;;;;;5.87;3.47;;;;;;;19.99;52.13;99708.53;4895389;29;21192;-77
2023/07/07 05:10:32;;;;;;;3.50;3.03;;;;;;;20.48;51.02;99711.50;4894807;29;20198;-77
2023/07/07 05:12:58;;;;;;;4.70;4.27;;;;;;;20.98;49.94;99708.91;4892335;29;20466;-78
2023/07/07 05:15:24;;;;;;;4.80;3.10;;;;;;;21.41;48.67;99712.38;4895629;29;20224;-79
2023/07/07 05:17:53;;;;;;;4.07;3.53;;;;;;;21.75;47.43;99710.56;4893316;29;20354;-77
2023/07/07 05:20:18;;;;;;;5.90;3.30;;;;;;;22.02;46.89;99712.88;4894643;29;20471;-77
2023/07/07 05:22:43;;;;;;;4.80;3.37;;;;;;;22.35;45.83;99702.13;4893081;29;20436;-77
2023/07/07 05:25:09;;;;;;;3.73;3.17;;;;;;;22.82;45.28;99708.50;4894972;29;20619;-78
2023/07/07 05:27:34;;;;;;;4.87;3.30;;;;;;;23.24;44.36;99707.31;4893384;29;20237;-77
2023/07/07 05:30:00;;;;;;;10.43;3.70;;;;;;;23.67;43.25;99707.69;4889710;29;20229;-77
2023/07/07 05:32:25;;;;;;;3.60;3.10;;;;;;;24.12;42.27;99708.66;4886553;29;20655;-76
2023/07/07 05:34:51;;;;;;;4.30;2.93;;;;;;;24.55;41.28;99711.56;4886792;29;20203;-76
2023/07/07 05:37:16;;;;;;;9.00;4.00;;;;;;;24.96;40.20;99706.53;4889479;29;20849;-76
2023/07/07 05:39:41;;;;;;;5.97;2.93;;;;;;;25.29;39.48;99708.78;4888021;29;20373;-77
2023/07/07 05:42:07;;;;;;;4.03;3.53;;;;;;;25.55;38.75;99711.75;4887227;29;20207;-77
2023/07/07 05:44:32;;;;;;;4.40;3.37;;;;;;;25.82;38.51;99698.53;4891563;29;20310;-76
2023/07/07 05:46:58;;;;;;;3.33;2.80;;;;;;;26.05;37.55;99709.09;4890974;29;20304;-77
2023/07/07 05:49:23;;;;;;;6.60;4.00;;;;;;;26.30;37.05;99705.94;4892054;29;20238;-77
2023/07/07 05:51:49;;;;;;;3.87;3.50;;;;;;;26.43;36.95;99716.81;4889125;29;20430;-76
2023/07/07 05:56:59;;;;;;;5.20;3.60;;;;;;;26.75;35.94;99714.53;4882798;27;20262;-77
2023/07/07 05:59:24;;;;;;;4.93;3.30;;;;;;;26.95;35.10;99703.81;4894122;29;20485;-77
2023/07/07 06:01:49;;;;;;;5.10;3.27;;;;;;;27.14;34.76;99708.47;4896567;29;20505;-77
2023/07/07 06:04:15;;;;;;;5.00;3.80;;;;;;;27.22;34.03;99708.31;4894728;29;20300;-77
2023/07/07 06:06:40;;;;;;;4.30;3.83;;;;;;;27.40;33.78;99702.31;4895827;29;21020;-77
2023/07/07 06:09:06;;;;;;;5.20;3.13;;;;;;;27.58;33.83;99709.84;4893765;29;20214;-77
2023/07/07 06:11:32;;;;;;;5.17;3.20;;;;;;;27.66;33.69;99706.09;4897143;29;20219;-77
2023/07/07 06:13:57;;;;;;;6.17;3.80;;;;;;;27.75;33.36;99711.06;4892007;29;20704;-77
2023/07/07 06:16:23;;;;;;;6.00;3.67;;;;;;;27.87;33.07;99703.25;4892500;29;20567;-77
2023/07/07 06:18:48;;;;;;;3.53;2.60;;;;;;;28.07;32.79;99707.78;4895228;29;20243;-77
2023/07/07 06:21:13;;;;;;;5.37;4.37;;;;;;;28.24;32.42;99699.03;4894252;29;20772;-77
2023/07/07 06:23:39;;;;;;;5.60;3.50;;;;;;;28.32;32.36;99697.97;4894401;29;20215;-77
2023/07/07 06:26:04;;;;;;;5.80;3.40;;;;;;;28.45;32.16;99695.28;4893849;29;20256;-77
2023/07/07 06:28:30;;;;;;;4.20;3.27;;;;;;;28.61;31.37;99685.88;4896056;29;20207;-77
2023/07/07 06:30:55;;;;;;;5.53;3.33;;;;;;;28.83;31.16;99683.72;4892681;29;20250;-77
2023/07/07 06:33:21;;;;;;;3.33;3.03;;;;;;;28.90;31.00;99692.63;4893045;29;20206;-77
2023/07/07 06:35:48;;;;;;;4.80;3.10;;;;;;;28.77;30.93;99687.28;4895298;29;20293;-77
2023/07/07 06:38:13;;;;;;;4.93;3.60;;;;;;;28.41;31.57;99693.19;4893873;29;20456;-77
2023/07/07 06:40:38;;;;;;;4.20;3.40;;;;;;;28.43;31.77;99689.25;4896718;29;20489;-77
2023/07/07 06:43:04;;;;;;;3.87;3.50;;;;;;;28.71;31.83;99693.53;4895892;29;20234;-76
2023/07/07 06:45:31;;;;;;;4.20;3.60;;;;;;;29.03;31.19;99691.75;4882019;29;20233;-76
2023/07/07 06:47:58;;;;;;;6.80;3.53;;;;;;;29.32;30.97;99687.63;4895500;29;20834;-76
2023/07/07 06:50:35;;;;;;;4.80;4.13;;;;;;;29.66;30.65;99684.72;4897348;29;20556;-76
2023/07/07 06:53:01;;;;;;;5.27;3.83;;;;;;;29.95;30.42;99681.34;4888260;29;20561;-76
2023/07/07 06:55:27;;;;;;;5.50;3.10;;;;;;;30.19;29.93;99693.22;4900328;28;20486;-76
2023/07/07 06:57:52;;;;;;;4.23;3.80;;;;;;;30.08;30.03;99699.34;4913328;29;20782;-76
2023/07/07 07:00:18;;;;;;;6.23;3.43;;;;;;;30.05;30.45;99688.97;4916812;29;20266;-76
2023/07/07 07:02:44;;;;;;;3.63;3.20;;;;;;;30.22;30.17;99686.53;4913839;29;20218;-76
2023/07/07 07:05:10;;;;;;;4.80;2.87;;;;;;;30.44;29.83;99686.94;4917099;28;20474;-76
2023/07/07 07:07:35;;;;;;;5.13;3.70;;;;;;;30.51;29.72;99687.69;4917621;29;20501;-76
2023/07/07 07:10:02;;;;;;;3.60;3.00;;;;;;;30.39;29.87;99682.19;4919004;28;20378;-76
2023/07/07 07:12:29;;;;;;;3.23;2.93;;;;;;;30.37;30.17;99681.56;4914711;29;20207;-78
2023/07/07 07:14:54;;;;;;;5.20;3.60;;;;;;;30.53;29.71;99674.72;4917008;29;20477;-76
2023/07/07 07:17:22;;;;;;;4.43;2.77;;;;;;;30.72;28.88;99672.84;4915634;29;20458;-76
2023/07/07 07:19:47;;;;;;;6.00;4.03;;;;;;;30.68;28.60;99674.38;4913599;28;20217;-76
2023/07/07 07:22:13;;;;;;;4.07;3.60;;;;;;;30.76;29.00;99678.63;4913549;28;20473;-76
2023/07/07 07:24:38;;;;;;;5.80;3.77;;;;;;;30.91;29.10;99684.50;4914171;29;20219;-76
2023/07/07 07:27:04;;;;;;;4.13;3.20;;;;;;;31.03;28.86;99687.31;4913103;29;20700;-76
2023/07/07 07:29:30;;;;;;;5.13;3.93;;;;;;;30.85;29.41;99685.44;4911148;29;20217;-76
2023/07/07 07:31:55;;;;;;;6.00;3.37;;;;;;;30.82;29.43;99694.03;4915024;29;20455;-76
2023/07/07 07:34:25;;;;;;;6.53;4.67;;;;;;;30.77;29.41;99691.13;4916650;28;20495;-76
2023/07/07 07:36:52;;;;;;;6.83;3.43;;;;;;;30.71;29.92;99692.88;4915204;29;20210;-77
2023/07/07 07:39:17;;;;;;;5.20;3.33;;;;;;;30.79;29.32;99698.00;4924127;29;20466;-78
2023/07/07 07:41:46;;;;;;;4.40;3.03;;;;;;;30.79;29.00;99697.19;4922781;29;20962;-78
2023/07/07 07:44:13;;;;;;;4.63;3.53;;;;;;;30.86;29.04;99697.94;4921408;29;20802;-79
2023/07/07 07:46:38;;;;;;;4.90;3.63;;;;;;;31.01;28.82;99700.25;4923560;29;20513;-77
2023/07/07 07:49:04;;;;;;;4.07;3.60;;;;;;;31.24;28.05;99691.38;4920924;29;20514;-77
2023/07/07 07:51:30;;;;;;;6.70;4.20;;;;;;;31.38;27.79;99692.88;4920108;29;20457;-77
2023/07/07 07:53:55;;;;;;;5.30;3.57;;;;;;;31.17;28.07;99693.38;4919320;29;20223;-77
2023/07/07 07:56:21;;;;;;;4.50;3.70;;;;;;;31.03;28.37;99685.41;4927234;29;20273;-77
2023/07/07 07:58:47;;;;;;;10.23;4.77;;;;;;;31.08;27.65;99684.69;4923463;29;20224;-77
2023/07/07 08:01:12;;;;;;;4.10;3.10;;;;;;;31.21;27.48;99687.22;4903239;29;20617;-76
2023/07/07 08:03:37;;;;;;;4.77;3.10;;;;;;;31.36;27.25;99688.72;4926966;28;21036;-76
2023/07/07 08:06:03;;;;;;;3.17;2.87;;;;;;;31.38;26.94;99682.03;4921570;29;20230;-78
2023/07/07 08:08:28;;;;;;;4.20;3.50;;;;;;;31.40;26.54;99684.47;4924724;29;20217;-78
2023/07/07 08:10:54;;;;;;;4.23;3.00;;;;;;;31.50;25.75;99684.75;4924873;28;20207;-77
2023/07/07 08:13:19;;;;;;;4.00;3.37;;;;;;;31.65;25.93;99690.56;4912378;29;20235;-78
2023/07/07 08:15:44;;;;;;;3.30;3.00;;;;;;;31.71;25.76;99686.09;4926329;29;20215;-78
2023/07/07 08:18:10;;;;;;;3.97;3.10;;;;;;;31.42;25.74;99688.63;4924381;29;20406;-78
2023/07/07 08:20:35;;;;;;;4.93;3.43;;;;;;;31.10;26.44;99690.72;4923559;28;20229;-77
2023/07/07 08:23:01;;;;;;;3.93;3.10;;;;;;;30.79;26.75;99694.47;4927237;29;20270;-78
2023/07/07 08:25:27;;;;;;;3.40;2.90;;;;;;;30.65;26.85;99688.38;4928021;29;20238;-78
2023/07/07 08:27:53;;;;;;;11.93;4.13;;;;;;;30.64;27.23;99689.41;4926323;28;20207;-78
2023/07/07 08:30:19;;;;;;;5.30;4.50;;;;;;;30.59;26.91;99692.78;4929733;29;21073;-77
2023/07/07 08:32:45;;;;;;;3.77;3.47;;;;;;;30.39;27.76;99694.91;4927598;28;21060;-78
2023/07/07 08:35:11;;;;;;;4.83;3.00;;;;;;;30.25;28.39;99688.00;4926852;29;20514;-77
2023/07/07 08:37:36;;;;;;;4.40;3.50;;;;;;;30.15;28.29;99693.88;4926093;29;20216;-78
2023/07/07 08:40:03;;;;;;;2.80;2.60;;;;;;;30.18;28.23;99694.25;4929690;28;20991;-78
2023/07/07 08:42:37;;;;;;;4.57;3.13;;;;;;;30.08;28.50;99687.69;4923454;29;20282;-77
2023/07/07 08:45:14;;;;;;;4.20;3.30;;;;;;;29.99;28.59;99685.25;4924515;28;20556;-77
2023/07/07 08:48:03;;;;;;;4.00;3.27;;;;;;;30.10;28.64;99691.84;4921991;29;20458;-77
2023/07/07 08:50:42;;;;;;;6.97;3.07;;;;;;;30.16;29.26;99690.09;4924001;29;20444;-77
2023/07/07 08:53:42;;;;;;;4.57;3.60;;;;;;;30.22;29.15;99683.81;4906570;29;20864;-77
2023/07/07 08:56:21;;;;;;;4.80;2.73;;;;;;;30.30;29.21;99680.84;4877984;29;21048;-77
2023/07/07 08:59:18;;;;;;;4.00;3.10;;;;;;;30.39;28.96;99684.06;4901961;29;20838;-77
2023/07/07 09:02:08;;;;;;;3.53;3.23;;;;;;;30.34;28.96;99682.03;4897045;29;20487;-77
2023/07/07 09:05:05;;;;;;;4.80;3.37;;;;;;;30.08;29.61;99674.97;4898194;29;20842;-77
2023/07/07 09:07:48;;;;;;;4.40;3.83;;;;;;;30.15;29.37;99673.03;4896769;29;20572;-77
2023/07/07 09:10:27;;;;;;;4.00;3.20;;;;;;;30.34;29.10;99671.19;4899501;29;20488;-77
2023/07/07 09:12:59;;;;;;;6.63;2.97;;;;;;;30.41;28.98;99677.38;4901586;29;20567;-77
2023/07/07 09:15:35;;;;;;;5.80;3.83;;;;;;;30.56;29.14;99666.13;4896375;29;20483;-77
2023/07/07 09:18:13;;;;;;;3.87;3.47;;;;;;;30.75;28.54;99663.41;4897040;29;20513;-77
2023/07/07 09:20:39;;;;;;;8.00;3.60;;;;;;;30.72;28.46;99658.44;4902000;29;20784;-77
2023/07/07 09:23:15;;;;;;;4.63;3.60;;;;;;;30.51;28.36;99657.03;4895821;29;20476;-77
2023/07/07 09:25:45;;;;;;;4.70;3.60;;;;;;;30.59;29.01;99657.56;4899025;29;20223;-77
2023/07/07 09:28:14;;;;;;;6.80;3.30;;;;;;;30.74;28.74;99649.03;4901365;29;20823;-77
2023/07/07 09:30:47;;;;;;;5.53;3.60;;;;;;;30.82;27.94;99653.34;4897797;29;20774;-77
2023/07/07 09:33:17;;;;;;;5.90;3.20;;;;;;;30.76;28.63;99648.78;4897554;29;20958;-77
2023/07/07 09:36:00;;;;;;;8.30;5.27;;;;;;;30.76;28.90;99646.09;4897878;29;20472;-77
2023/07/07 09:38:34;;;;;;;9.03;4.33;;;;;;;30.87;29.38;99648.06;4900971;29;20460;-78
2023/07/07 09:41:27;;;;;;;6.80;3.60;;;;;;;30.98;29.02;99650.00;4899291;29;20571;-77
2023/07/07 09:44:02;;;;;;;3.90;3.50;;;;;;;31.17;28.05;99639.09;4884522;29;20452;-77
2023/07/07 09:46:39;;;;;;;9.90;3.97;;;;;;;31.21;27.62;99632.13;4901263;29;20746;-77
2023/07/07 09:49:37;;;;;;;4.97;3.43;;;;;;;31.14;27.71;99626.00;4897551;29;20533;-78
2023/07/07 09:52:30;;;;;;;3.93;3.63;;;;;;;30.68;28.54;99632.84;4894844;29;20440;-77
2023/07/07 09:54:59;;;;;;;4.40;3.67;;;;;;;30.53;29.24;99631.38;4901377;29;20497;-78
2023/07/07 09:57:34;;;;;;;5.50;4.07;;;;;;;30.69;29.41;99635.34;4917533;29;20981;-77
2023/07/07 10:00:01;;;;;;;5.80;3.67;;;;;;;30.99;28.60;99635.38;4920947;29;20450;-77
2023/07/07 10:02:30;;;;;;;9.43;4.17;;;;;;;31.26;28.32;99627.66;4923775;28;20439;-77
2023/07/07 10:05:04;;;;;;;19.67;5.20;;;;;;;31.44;28.02;99636.81;4919470;29;20828;-77
2023/07/07 10:07:35;;;;;;;9.43;3.70;;;;;;;31.64;27.70;99628.34;4916534;29;20562;-79
2023/07/07 10:10:05;;;;;;;4.67;3.30;;;;;;;31.92;27.15;99619.50;4916544;29;20475;-78
2023/07/07 10:12:32;;;;;;;6.50;3.60;;;;;;;32.03;27.11;99626.00;4921222;28;21037;-78
2023/07/07 10:14:58;;;;;;;4.97;3.80;;;;;;;32.02;26.75;99622.47;4921129;28;20475;-78
2023/07/07 10:18:03;;;;;;;5.33;4.23;;;;;;;32.06;26.84;99611.97;4917068;29;20488;-78
2023/07/07 10:20:30;;;;;;;5.50;3.53;;;;;;;32.14;26.74;99614.31;4858154;29;20491;-78
2023/07/07 10:22:55;;;;;;;4.70;2.63;;;;;;;32.32;nan;99618.75;4911151;29;20565;-78
2023/07/07 10:25:21;;;;;;;5.37;3.40;;;;;;;32.43;nan;99619.78;4923484;28;20611;-77
2023/07/07 10:27:50;;;;;;;7.43;4.90;;;;;;;32.49;nan;99622.41;4923502;29;20212;-77
2023/07/07 10:30:16;;;;;;;3.90;3.03;;;;;;;32.59;nan;99621.78;4918995;28;20302;-76
2023/07/07 10:32:42;;;;;;;4.73;3.60;;;;;;;32.66;nan;99618.94;4920447;29;20635;-77
2023/07/07 10:35:08;;;;;;;5.27;3.23;;;;;;;32.68;nan;99630.41;4917558;29;20290;-76
2023/07/07 10:37:37;;;;;;;4.30;3.10;;;;;;;32.64;nan;99627.31;4921334;29;20464;-77
2023/07/07 10:40:03;;;;;;;4.20;3.30;;;;;;;32.60;nan;99618.81;4917554;29;20517;-77
2023/07/07 10:42:31;;;;;;;6.20;4.00;;;;;;;32.37;nan;99618.84;4922963;29;20475;-77
2023/07/07 10:45:02;;;;;;;3.67;3.37;;;;;;;32.25;nan;99623.50;4921441;29;20461;-78
2023/07/07 10:47:30;;;;;;;4.73;3.80;;;;;;;32.32;nan;99616.84;4899758;29;20549;-77
2023/07/07 10:49:57;;;;;;;4.77;3.53;;;;;;;32.45;nan;99614.94;4917029;29;20487;-77
2023/07/07 10:52:43;;;;;;;5.90;4.57;;;;;;;32.51;nan;99608.56;4918633;29;20476;-77
2023/07/07 10:55:49;;;;;;;4.60;3.00;;;;;;;32.54;nan;99605.34;4918932;29;20496;-77
2023/07/07 10:58:41;;;;;;;8.23;3.43;;;;;;;32.69;nan;99602.13;4907020;29;20523;-78
2023/07/07 11:01:42;;;;;;;5.03;3.67;;;;;;;32.66;nan;99605.34;4919219;29;20480;-78
2023/07/07 11:04:38;;;;;;;4.30;3.30;;;;;;;32.73;nan;99603.28;4918491;29;21049;-77
2023/07/07 11:07:39;;;;;;;4.20;3.70;;;;;;;32.80;nan;99602.06;4914881;29;21070;-77
2023/07/07 11:10:46;;;;;;;3.53;3.23;;;;;;;32.73;nan;99601.41;4902161;29;21050;-77
2023/07/07 11:13:19;;;;;;;5.37;3.73;;;;;;;32.58;nan;99601.91;4914536;29;20545;-77
2023/07/07 11:15:55;;;;;;;4.40;3.60;;;;;;;32.53;nan;99596.38;4917822;29;20595;-77
2023/07/07 11:18:29;;;;;;;5.57;4.27;;;;;;;32.59;nan;99600.03;4918843;29;20813;-76
2023/07/07 11:21:29;;;;;;;4.70;3.50;;;;;;;32.65;nan;99599.06;4922910;29;20550;-77
2023/07/07 11:24:10;;;;;;;4.40;3.50;;;;;;;32.80;nan;99599.34;4922051;29;21081;-77
2023/07/07 11:26:56;;;;;;;7.80;4.10;;;;;;;32.88;nan;99587.25;4921077;29;21017;-77
2023/07/07 11:29:35;;;;;;;5.03;3.80;;;;;;;32.76;nan;99583.78;4913166;29;20465;-77
2023/07/07 11:32:16;;;;;;;3.17;2.87;;;;;;;32.70;nan;99582.00;4912187;29;20999;-77
2023/07/07 11:35:16;;;;;;;6.70;4.00;;;;;;;32.78;nan;99589.78;4915575;29;20530;-78
2023/07/07 11:37:57;;;;;;;6.30;4.23;;;;;;;32.98;nan;99581.16;4911608;29;20531;-77
2023/07/07 11:40:37;;;;;;;5.30;3.40;;;;;;;33.03;nan;99575.84;4918918;29;20481;-75
2023/07/07 11:43:22;;;;;;;4.33;3.23;;;;;;;32.99;nan;99577.38;4888504;29;20540;-76
2023/07/07 11:46:15;;;;;;;4.30;3.73;;;;;;;32.90;nan;99567.97;4915535;29;20540;-76
2023/07/07 11:49:21;;;;;;;8.70;3.43;;;;;;;32.70;nan;99577.38;4915763;29;20463;-77
2023/07/07 11:51:53;;;;;;;4.73;3.90;;;;;;;32.60;nan;99575.31;4873663;29;21099;-77
2023/07/07 11:54:35;;;;;;;6.77;3.90;;;;;;;32.66;nan;99572.69;4913868;29;20473;-77
2023/07/07 11:57:28;;;;;;;5.50;3.33;;;;;;;32.65;nan;99569.16;4915253;29;20479;-77
2023/07/07 12:00:25;;;;;;;4.67;3.90;;;;;;;32.71;nan;99567.34;4902993;29;21050;-77